sensor_id;sensor_type;location;lat;lon;timestamp;pressure;altitude;pressure_sealevel;temperature
20867;BMP280;10593;48.398;10.698;2024-01-25T00:01:20;97256.88;;;14.62
20867;BMP280;10593;48.398;10.698;2024-01-25T00:03:45;97256.88;;;14.62
20867;BMP280;10593;48.398;10.698;2024-01-25T00:06:11;97244.81;;;14.61
20867;BMP280;10593;48.398;10.698;2024-01-25T00:08:37;97243.97;;;14.60
20867;BMP280;10593;48.398;10.698;2024-01-25T00:11:03;97240.53;;;14.60
20867;BMP280;10593;48.398;10.698;2024-01-25T00:13:29;97247.41;;;14.61
20867;BMP280;10593;48.398;10.698;2024-01-25T00:15:55;97255.22;;;14.59
20867;BMP280;10593;48.398;10.698;2024-01-25T00:18:21;97259.50;;;14.59
20867;BMP280;10593;48.398;10.698;2024-01-25T00:20:46;97248.28;;;14.58
20867;BMP280;10593;48.398;10.698;2024-01-25T00:23:12;97250.06;;;14.58
20867;BMP280;10593;48.398;10.698;2024-01-25T00:25:38;97248.28;;;14.58
20867;BMP280;10593;48.398;10.698;2024-01-25T00:28:04;97252.63;;;14.58
20867;BMP280;10593;48.398;10.698;2024-01-25T00:30:30;97256.09;;;14.57
20867;BMP280;10593;48.398;10.698;2024-01-25T00:32:58;97256.09;;;14.57
20867;BMP280;10593;48.398;10.698;2024-01-25T00:35:25;97240.59;;;14.55
20867;BMP280;10593;48.398;10.698;2024-01-25T00:37:51;97246.63;;;14.56
20867;BMP280;10593;48.398;10.698;2024-01-25T00:40:17;97257.00;;;14.56
20867;BMP280;10593;48.398;10.698;2024-01-25T00:42:46;97244.94;;;14.55
20867;BMP280;10593;48.398;10.698;2024-01-25T00:45:22;97242.34;;;14.55
20867;BMP280;10593;48.398;10.698;2024-01-25T00:47:49;97243.22;;;14.54
20867;BMP280;10593;48.398;10.698;2024-01-25T00:50:15;97242.38;;;14.53
20867;BMP280;10593;48.398;10.698;2024-01-25T00:52:47;97237.19;;;14.52
20867;BMP280;10593;48.398;10.698;2024-01-25T00:55:15;97234.63;;;14.52
20867;BMP280;10593;48.398;10.698;2024-01-25T00:57:41;97228.59;;;14.51
20867;BMP280;10593;48.398;10.698;2024-01-25T01:00:07;97231.22;;;14.50
20867;BMP280;10593;48.398;10.698;2024-01-25T01:02:41;97235.53;;;14.49
20867;BMP280;10593;48.398;10.698;2024-01-25T01:05:09;97229.50;;;14.49
20867;BMP280;10593;48.398;10.698;2024-01-25T01:07:35;97220.91;;;14.48
20867;BMP280;10593;48.398;10.698;2024-01-25T01:10:00;97213.16;;;14.47
20867;BMP280;10593;48.398;10.698;2024-01-25T01:12:26;97204.56;;;14.46
20867;BMP280;10593;48.398;10.698;2024-01-25T01:14:52;97213.22;;;14.45
20867;BMP280;10593;48.398;10.698;2024-01-25T01:17:17;97212.34;;;14.45
20867;BMP280;10593;48.398;10.698;2024-01-25T01:19:44;97216.66;;;14.44
20867;BMP280;10593;48.398;10.698;2024-01-25T01:22:10;97225.28;;;14.43
20867;BMP280;10593;48.398;10.698;2024-01-25T01:24:35;97227.00;;;14.44
20867;BMP280;10593;48.398;10.698;2024-01-25T01:27:01;97225.28;;;14.43
20867;BMP280;10593;48.398;10.698;2024-01-25T01:29:27;97227.00;;;14.44
20867;BMP280;10593;48.398;10.698;2024-01-25T01:31:53;97228.75;;;14.42
20867;BMP280;10593;48.398;10.698;2024-01-25T01:34:19;97232.22;;;14.43
20867;BMP280;10593;48.398;10.698;2024-01-25T01:36:44;97227.03;;;14.43
20867;BMP280;10593;48.398;10.698;2024-01-25T01:39:10;97222.75;;;14.42
20867;BMP280;10593;48.398;10.698;2024-01-25T01:41:36;97227.06;;;14.41
20867;BMP280;10593;48.398;10.698;2024-01-25T01:44:01;97223.63;;;14.41
20867;BMP280;10593;48.398;10.698;2024-01-25T01:46:33;97219.34;;;14.40
20867;BMP280;10593;48.398;10.698;2024-01-25T01:49:04;97210.72;;;14.38
20867;BMP280;10593;48.398;10.698;2024-01-25T01:51:34;97208.13;;;14.38
20867;BMP280;10593;48.398;10.698;2024-01-25T01:54:02;97206.41;;;14.38
20867;BMP280;10593;48.398;10.698;2024-01-25T01:56:31;97207.31;;;14.36
20867;BMP280;10593;48.398;10.698;2024-01-25T01:59:09;97198.72;;;14.35
20867;BMP280;10593;48.398;10.698;2024-01-25T02:01:35;97203.91;;;14.34
20867;BMP280;10593;48.398;10.698;2024-01-25T02:04:01;97207.38;;;14.33
20867;BMP280;10593;48.398;10.698;2024-01-25T02:06:27;97199.63;;;14.33
20867;BMP280;10593;48.398;10.698;2024-01-25T02:08:53;97202.22;;;14.31
20867;BMP280;10593;48.398;10.698;2024-01-25T02:11:21;97192.75;;;14.30
20867;BMP280;10593;48.398;10.698;2024-01-25T02:13:47;97189.28;;;14.31
20867;BMP280;10593;48.398;10.698;2024-01-25T02:16:13;97187.59;;;14.30
20867;BMP280;10593;48.398;10.698;2024-01-25T02:18:41;97192.75;;;14.30
20867;BMP280;10593;48.398;10.698;2024-01-25T02:21:07;97194.50;;;14.30
20867;BMP280;10593;48.398;10.698;2024-01-25T02:23:34;97191.06;;;14.29
20867;BMP280;10593;48.398;10.698;2024-01-25T02:26:00;97191.91;;;14.30
20867;BMP280;10593;48.398;10.698;2024-01-25T02:28:25;97186.75;;;14.30
20867;BMP280;10593;48.398;10.698;2024-01-25T02:30:51;97185.88;;;14.29
20867;BMP280;10593;48.398;10.698;2024-01-25T02:33:17;97191.91;;;14.30
20867;BMP280;10593;48.398;10.698;2024-01-25T02:35:42;97190.22;;;14.29
20867;BMP280;10593;48.398;10.698;2024-01-25T02:38:08;97197.97;;;14.29
20867;BMP280;10593;48.398;10.698;2024-01-25T02:40:34;97188.50;;;14.28
20867;BMP280;10593;48.398;10.698;2024-01-25T02:43:00;97190.28;;;14.26
20867;BMP280;10593;48.398;10.698;2024-01-25T02:45:25;97197.16;;;14.27
20867;BMP280;10593;48.398;10.698;2024-01-25T02:47:51;97190.28;;;14.26
20867;BMP280;10593;48.398;10.698;2024-01-25T02:50:17;97190.28;;;14.24
20867;BMP280;10593;48.398;10.698;2024-01-25T02:52:42;97184.25;;;14.24
20867;BMP280;10593;48.398;10.698;2024-01-25T02:55:08;97179.97;;;14.23
20867;BMP280;10593;48.398;10.698;2024-01-25T02:57:34;97178.25;;;14.22
20867;BMP280;10593;48.398;10.698;2024-01-25T03:00:00;97174.84;;;14.21
20867;BMP280;10593;48.398;10.698;2024-01-25T03:02:26;97166.22;;;14.21
20867;BMP280;10593;48.398;10.698;2024-01-25T03:04:52;97172.25;;;14.20
20867;BMP280;10593;48.398;10.698;2024-01-25T03:07:17;97174.00;;;14.19
20867;BMP280;10593;48.398;10.698;2024-01-25T03:09:43;97169.69;;;14.20
20867;BMP280;10593;48.398;10.698;2024-01-25T03:12:09;97173.13;;;14.20
20867;BMP280;10593;48.398;10.698;2024-01-25T03:14:35;97173.97;;;14.21
20867;BMP280;10593;48.398;10.698;2024-01-25T03:17:01;97171.38;;;14.21
20867;BMP280;10593;48.398;10.698;2024-01-25T03:19:27;97177.41;;;14.21
20867;BMP280;10593;48.398;10.698;2024-01-25T03:21:53;97166.22;;;14.21
20867;BMP280;10593;48.398;10.698;2024-01-25T03:24:20;97174.00;;;14.19
20867;BMP280;10593;48.398;10.698;2024-01-25T03:26:46;97178.31;;;14.20
20867;BMP280;10593;48.398;10.698;2024-01-25T03:29:12;97190.34;;;14.20
20867;BMP280;10593;48.398;10.698;2024-01-25T03:31:38;97189.53;;;14.19
20867;BMP280;10593;48.398;10.698;2024-01-25T03:34:04;97182.66;;;14.18
20867;BMP280;10593;48.398;10.698;2024-01-25T03:36:30;97192.09;;;14.19
20867;BMP280;10593;48.398;10.698;2024-01-25T03:38:57;97185.25;;;14.17
20867;BMP280;10593;48.398;10.698;2024-01-25T03:41:22;97184.38;;;14.16
20867;BMP280;10593;48.398;10.698;2024-01-25T03:43:49;97185.22;;;14.15
20867;BMP280;10593;48.398;10.698;2024-01-25T03:46:15;97198.16;;;14.17
20867;BMP280;10593;48.398;10.698;2024-01-25T03:48:40;97191.25;;;14.16
20867;BMP280;10593;48.398;10.698;2024-01-25T03:51:06;97197.31;;;14.15
20867;BMP280;10593;48.398;10.698;2024-01-25T03:53:32;97188.69;;;14.16
20867;BMP280;10593;48.398;10.698;2024-01-25T03:55:57;97194.72;;;14.15
20867;BMP280;10593;48.398;10.698;2024-01-25T03:58:23;97194.72;;;14.15
20867;BMP280;10593;48.398;10.698;2024-01-25T04:00:49;97192.16;;;14.15
20867;BMP280;10593;48.398;10.698;2024-01-25T04:03:14;97192.16;;;14.15
20867;BMP280;10593;48.398;10.698;2024-01-25T04:05:40;97187.84;;;14.14
20867;BMP280;10593;48.398;10.698;2024-01-25T04:08:06;97187.00;;;14.13
20867;BMP280;10593;48.398;10.698;2024-01-25T04:10:32;97192.16;;;14.13
20867;BMP280;10593;48.398;10.698;2024-01-25T04:12:58;97192.22;;;14.12
20867;BMP280;10593;48.398;10.698;2024-01-25T04:15:26;97193.91;;;14.13
20867;BMP280;10593;48.398;10.698;2024-01-25T04:17:52;97193.91;;;14.13
20867;BMP280;10593;48.398;10.698;2024-01-25T04:20:19;97192.22;;;14.12
20867;BMP280;10593;48.398;10.698;2024-01-25T04:22:45;97193.06;;;14.11
20867;BMP280;10593;48.398;10.698;2024-01-25T04:25:10;97187.03;;;14.12
20867;BMP280;10593;48.398;10.698;2024-01-25T04:27:39;97189.63;;;14.12
20867;BMP280;10593;48.398;10.698;2024-01-25T04:30:07;97189.63;;;14.12
20867;BMP280;10593;48.398;10.698;2024-01-25T04:32:33;97196.50;;;14.11
20867;BMP280;10593;48.398;10.698;2024-01-25T04:34:59;97207.72;;;14.09
20867;BMP280;10593;48.398;10.698;2024-01-25T04:37:25;97210.31;;;14.10
20867;BMP280;10593;48.398;10.698;2024-01-25T04:39:50;97216.34;;;14.09
20867;BMP280;10593;48.398;10.698;2024-01-25T04:42:16;97222.38;;;14.10
20867;BMP280;10593;48.398;10.698;2024-01-25T04:44:42;97227.53;;;14.10
20867;BMP280;10593;48.398;10.698;2024-01-25T04:47:09;97233.59;;;14.09
20867;BMP280;10593;48.398;10.698;2024-01-25T04:49:35;97247.38;;;14.09
20867;BMP280;10593;48.398;10.698;2024-01-25T04:52:01;97249.97;;;14.09
20867;BMP280;10593;48.398;10.698;2024-01-25T04:54:27;97249.97;;;14.09
20867;BMP280;10593;48.398;10.698;2024-01-25T04:56:52;97254.25;;;14.09
20867;BMP280;10593;48.398;10.698;2024-01-25T04:59:18;97258.56;;;14.10
20867;BMP280;10593;48.398;10.698;2024-01-25T05:01:44;97257.72;;;14.09
20867;BMP280;10593;48.398;10.698;2024-01-25T05:04:09;97268.91;;;14.10
20867;BMP280;10593;48.398;10.698;2024-01-25T05:06:35;97273.22;;;14.08
20867;BMP280;10593;48.398;10.698;2024-01-25T05:09:01;97274.09;;;14.08
20867;BMP280;10593;48.398;10.698;2024-01-25T05:11:27;97279.28;;;14.07
20867;BMP280;10593;48.398;10.698;2024-01-25T05:13:52;97282.75;;;14.07
20867;BMP280;10593;48.398;10.698;2024-01-25T05:16:18;97282.75;;;14.07
20867;BMP280;10593;48.398;10.698;2024-01-25T05:18:44;97293.91;;;14.08
20867;BMP280;10593;48.398;10.698;2024-01-25T05:21:09;97294.78;;;14.07
20867;BMP280;10593;48.398;10.698;2024-01-25T05:23:35;97293.97;;;14.06
20867;BMP280;10593;48.398;10.698;2024-01-25T05:26:01;97300.84;;;14.07
20867;BMP280;10593;48.398;10.698;2024-01-25T05:28:27;97293.09;;;14.06
20867;BMP280;10593;48.398;10.698;2024-01-25T05:30:53;97298.25;;;14.06
20867;BMP280;10593;48.398;10.698;2024-01-25T05:33:19;97297.41;;;14.05
20867;BMP280;10593;48.398;10.698;2024-01-25T05:35:44;97288.78;;;14.05
20867;BMP280;10593;48.398;10.698;2024-01-25T05:38:10;97287.94;;;14.04
20867;BMP280;10593;48.398;10.698;2024-01-25T05:40:35;97292.25;;;14.04
20867;BMP280;10593;48.398;10.698;2024-01-25T05:43:01;97292.25;;;14.04
20867;BMP280;10593;48.398;10.698;2024-01-25T05:45:27;97298.31;;;14.03
20867;BMP280;10593;48.398;10.698;2024-01-25T05:47:52;97305.19;;;14.04
20867;BMP280;10593;48.398;10.698;2024-01-25T05:50:18;97309.47;;;14.03
20867;BMP280;10593;48.398;10.698;2024-01-25T05:52:44;97306.06;;;14.03
20867;BMP280;10593;48.398;10.698;2024-01-25T05:55:10;97318.09;;;14.04
20867;BMP280;10593;48.398;10.698;2024-01-25T05:57:36;97325.84;;;14.04
20867;BMP280;10593;48.398;10.698;2024-01-25T06:00:04;97318.97;;;14.03
20867;BMP280;10593;48.398;10.698;2024-01-25T06:02:31;97325.84;;;14.04
20867;BMP280;10593;48.398;10.698;2024-01-25T06:04:56;97324.16;;;14.03
20867;BMP280;10593;48.398;10.698;2024-01-25T06:07:24;97331.03;;;14.04
20867;BMP280;10593;48.398;10.698;2024-01-25T06:09:50;97326.75;;;14.03
20867;BMP280;10593;48.398;10.698;2024-01-25T06:12:16;97338.78;;;14.02
20867;BMP280;10593;48.398;10.698;2024-01-25T06:14:42;97335.38;;;14.00
20867;BMP280;10593;48.398;10.698;2024-01-25T06:17:07;97337.97;;;14.00
20867;BMP280;10593;48.398;10.698;2024-01-25T06:19:33;97336.25;;;13.98
20867;BMP280;10593;48.398;10.698;2024-01-25T06:22:00;97336.25;;;13.98
20867;BMP280;10593;48.398;10.698;2024-01-25T06:24:26;97344.00;;;13.98
20867;BMP280;10593;48.398;10.698;2024-01-25T06:26:53;97350.06;;;13.97
20867;BMP280;10593;48.398;10.698;2024-01-25T06:29:19;97352.69;;;13.95
20867;BMP280;10593;48.398;10.698;2024-01-25T06:31:45;97359.56;;;13.95
20867;BMP280;10593;48.398;10.698;2024-01-25T06:34:11;97361.31;;;13.93
20867;BMP280;10593;48.398;10.698;2024-01-25T06:36:37;97357.91;;;13.92
20867;BMP280;10593;48.398;10.698;2024-01-25T06:39:03;97360.50;;;13.91
20867;BMP280;10593;48.398;10.698;2024-01-25T06:41:32;97358.78;;;13.90
20867;BMP280;10593;48.398;10.698;2024-01-25T06:43:59;97360.53;;;13.88
20867;BMP280;10593;48.398;10.698;2024-01-25T06:46:25;97363.13;;;13.86
20867;BMP280;10593;48.398;10.698;2024-01-25T06:48:51;97362.28;;;13.86
20867;BMP280;10593;48.398;10.698;2024-01-25T06:51:17;97357.13;;;13.84
20867;BMP280;10593;48.398;10.698;2024-01-25T06:53:43;97358.88;;;13.82
20867;BMP280;10593;48.398;10.698;2024-01-25T06:56:09;97359.72;;;13.83
20867;BMP280;10593;48.398;10.698;2024-01-25T06:58:34;97360.63;;;13.80
20867;BMP280;10593;48.398;10.698;2024-01-25T07:01:01;97366.69;;;13.79
20867;BMP280;10593;48.398;10.698;2024-01-25T07:03:27;97383.91;;;13.79
20867;BMP280;10593;48.398;10.698;2024-01-25T07:05:52;97398.56;;;13.78
20867;BMP280;10593;48.398;10.698;2024-01-25T07:08:18;97395.09;;;13.78
20867;BMP280;10593;48.398;10.698;2024-01-25T07:10:45;97403.72;;;13.77
20867;BMP280;10593;48.398;10.698;2024-01-25T07:13:11;97407.19;;;13.76
20867;BMP280;10593;48.398;10.698;2024-01-25T07:15:36;97407.19;;;13.76
20867;BMP280;10593;48.398;10.698;2024-01-25T07:18:02;97402.84;;;13.76
20867;BMP280;10593;48.398;10.698;2024-01-25T07:20:28;97408.06;;;13.75
20867;BMP280;10593;48.398;10.698;2024-01-25T07:22:54;97420.97;;;13.75
20867;BMP280;10593;48.398;10.698;2024-01-25T07:25:20;97427.91;;;13.73
20867;BMP280;10593;48.398;10.698;2024-01-25T07:27:47;97440.81;;;13.73
20867;BMP280;10593;48.398;10.698;2024-01-25T07:30:13;97444.28;;;13.72
20867;BMP280;10593;48.398;10.698;2024-01-25T07:32:39;97445.13;;;13.71
20867;BMP280;10593;48.398;10.698;2024-01-25T07:35:10;97427.91;;;13.70
20867;BMP280;10593;48.398;10.698;2024-01-25T07:37:36;97434.81;;;13.69
20867;BMP280;10593;48.398;10.698;2024-01-25T07:40:02;97421.88;;;13.71
20867;BMP280;10593;48.398;10.698;2024-01-25T07:42:32;97426.19;;;13.69
20867;BMP280;10593;48.398;10.698;2024-01-25T07:44:57;97428.78;;;13.69
20867;BMP280;10593;48.398;10.698;2024-01-25T07:47:23;97434.81;;;13.69
20867;BMP280;10593;48.398;10.698;2024-01-25T07:49:49;97445.16;;;13.69
20867;BMP280;10593;48.398;10.698;2024-01-25T07:52:14;97445.16;;;13.69
20867;BMP280;10593;48.398;10.698;2024-01-25T07:54:40;97446.00;;;13.70
20867;BMP280;10593;48.398;10.698;2024-01-25T07:57:06;97439.97;;;13.69
20867;BMP280;10593;48.398;10.698;2024-01-25T07:59:31;97453.75;;;13.70
20867;BMP280;10593;48.398;10.698;2024-01-25T08:01:57;97447.75;;;13.69
20867;BMP280;10593;48.398;10.698;2024-01-25T08:04:23;97458.91;;;13.70
20867;BMP280;10593;48.398;10.698;2024-01-25T08:06:48;97454.63;;;13.69
20867;BMP280;10593;48.398;10.698;2024-01-25T08:09:14;97455.47;;;13.69
20867;BMP280;10593;48.398;10.698;2024-01-25T08:11:40;97466.66;;;13.70
20867;BMP280;10593;48.398;10.698;2024-01-25T08:14:05;97468.38;;;13.71
20867;BMP280;10593;48.398;10.698;2024-01-25T08:16:31;97473.53;;;13.71
20867;BMP280;10593;48.398;10.698;2024-01-25T08:18:57;97481.25;;;13.75
20867;BMP280;10593;48.398;10.698;2024-01-25T08:21:24;97468.34;;;13.74
20867;BMP280;10593;48.398;10.698;2024-01-25T08:23:49;97467.44;;;13.76
20867;BMP280;10593;48.398;10.698;2024-01-25T08:26:15;97463.16;;;13.77
20867;BMP280;10593;48.398;10.698;2024-01-25T08:28:42;97465.75;;;13.77
20867;BMP280;10593;48.398;10.698;2024-01-25T08:31:11;97478.66;;;13.77
20867;BMP280;10593;48.398;10.698;2024-01-25T08:33:38;97466.56;;;13.77
20867;BMP280;10593;48.398;10.698;2024-01-25T08:36:04;97470.91;;;13.78
20867;BMP280;10593;48.398;10.698;2024-01-25T08:38:30;97468.28;;;13.80
20867;BMP280;10593;48.398;10.698;2024-01-25T08:40:55;97468.28;;;13.80
20867;BMP280;10593;48.398;10.698;2024-01-25T08:43:21;97459.66;;;13.81
20867;BMP280;10593;48.398;10.698;2024-01-25T08:45:47;97458.81;;;13.80
20867;BMP280;10593;48.398;10.698;2024-01-25T08:48:13;97471.72;;;13.80
20867;BMP280;10593;48.398;10.698;2024-01-25T08:50:39;97473.44;;;13.81
20867;BMP280;10593;48.398;10.698;2024-01-25T08:53:05;97476.03;;;13.81
20867;BMP280;10593;48.398;10.698;2024-01-25T08:55:31;97474.28;;;13.82
20867;BMP280;10593;48.398;10.698;2024-01-25T08:57:57;97475.16;;;13.81
20867;BMP280;10593;48.398;10.698;2024-01-25T09:00:22;97466.53;;;13.82
20867;BMP280;10593;48.398;10.698;2024-01-25T09:02:48;97473.41;;;13.83
20867;BMP280;10593;48.398;10.698;2024-01-25T09:05:14;97475.13;;;13.84
20867;BMP280;10593;48.398;10.698;2024-01-25T09:07:40;97488.91;;;13.84
20867;BMP280;10593;48.398;10.698;2024-01-25T09:10:08;97493.19;;;13.84
20867;BMP280;10593;48.398;10.698;2024-01-25T09:12:35;97501.81;;;13.86
20867;BMP280;10593;48.398;10.698;2024-01-25T09:15:01;97498.31;;;13.88
20867;BMP280;10593;48.398;10.698;2024-01-25T09:17:28;97519.00;;;13.90
20867;BMP280;10593;48.398;10.698;2024-01-25T09:19:53;97518.97;;;13.91
20867;BMP280;10593;48.398;10.698;2024-01-25T09:22:19;97530.16;;;13.92
20867;BMP280;10593;48.398;10.698;2024-01-25T09:24:46;97527.59;;;13.92
20867;BMP280;10593;48.398;10.698;2024-01-25T09:27:13;97535.34;;;13.93
20867;BMP280;10593;48.398;10.698;2024-01-25T09:29:42;97533.56;;;13.97
20867;BMP280;10593;48.398;10.698;2024-01-25T09:32:09;97530.97;;;13.97
20867;BMP280;10593;48.398;10.698;2024-01-25T09:34:36;97512.88;;;13.98
20867;BMP280;10593;48.398;10.698;2024-01-25T09:37:03;97513.72;;;14.00
20867;BMP280;10593;48.398;10.698;2024-01-25T09:39:29;97511.97;;;14.02
20867;BMP280;10593;48.398;10.698;2024-01-25T09:41:54;97502.50;;;14.03
20867;BMP280;10593;48.398;10.698;2024-01-25T09:44:21;97507.63;;;14.06
20867;BMP280;10593;48.398;10.698;2024-01-25T09:46:47;97504.16;;;14.07
20867;BMP280;10593;48.398;10.698;2024-01-25T09:49:13;97511.03;;;14.09
20867;BMP280;10593;48.398;10.698;2024-01-25T09:51:43;97507.56;;;14.12
20867;BMP280;10593;48.398;10.698;2024-01-25T09:54:09;97504.09;;;14.13
20867;BMP280;10593;48.398;10.698;2024-01-25T09:56:36;97497.19;;;14.15
20867;BMP280;10593;48.398;10.698;2024-01-25T09:59:03;97505.81;;;14.17
20867;BMP280;10593;48.398;10.698;2024-01-25T10:01:30;97505.81;;;14.17
20867;BMP280;10593;48.398;10.698;2024-01-25T10:03:56;97504.94;;;14.18
20867;BMP280;10593;48.398;10.698;2024-01-25T10:06:22;97514.41;;;14.19
20867;BMP280;10593;48.398;10.698;2024-01-25T10:08:49;97512.66;;;14.21
20867;BMP280;10593;48.398;10.698;2024-01-25T10:11:15;97512.66;;;14.21
20867;BMP280;10593;48.398;10.698;2024-01-25T10:13:45;97504.00;;;14.22
20867;BMP280;10593;48.398;10.698;2024-01-25T10:16:16;97508.31;;;14.23
20867;BMP280;10593;48.398;10.698;2024-01-25T10:18:43;97504.84;;;14.24
20867;BMP280;10593;48.398;10.698;2024-01-25T10:21:10;97497.09;;;14.25
20867;BMP280;10593;48.398;10.698;2024-01-25T10:23:37;97485.03;;;14.26
20867;BMP280;10593;48.398;10.698;2024-01-25T10:26:03;97475.53;;;14.26
20867;BMP280;10593;48.398;10.698;2024-01-25T10:28:28;97480.69;;;14.28
20867;BMP280;10593;48.398;10.698;2024-01-25T10:31:01;97482.34;;;14.30
20867;BMP280;10593;48.398;10.698;2024-01-25T10:33:27;97477.22;;;14.29
20867;BMP280;10593;48.398;10.698;2024-01-25T10:35:57;97478.00;;;14.34
20867;BMP280;10593;48.398;10.698;2024-01-25T10:38:33;97471.13;;;14.33
20867;BMP280;10593;48.398;10.698;2024-01-25T10:41:04;97465.09;;;14.34
20867;BMP280;10593;48.398;10.698;2024-01-25T10:43:30;97470.25;;;14.35
20867;BMP280;10593;48.398;10.698;2024-01-25T10:45:57;97459.91;;;14.35
20867;BMP280;10593;48.398;10.698;2024-01-25T10:48:25;97462.44;;;14.37
20867;BMP280;10593;48.398;10.698;2024-01-25T10:50:55;97453.84;;;14.36
20867;BMP280;10593;48.398;10.698;2024-01-25T10:53:23;97452.97;;;14.39
20867;BMP280;10593;48.398;10.698;2024-01-25T10:55:50;97449.50;;;14.38
20867;BMP280;10593;48.398;10.698;2024-01-25T10:58:17;97446.91;;;14.38
20867;BMP280;10593;48.398;10.698;2024-01-25T11:00:51;97440.88;;;14.41
20867;BMP280;10593;48.398;10.698;2024-01-25T11:03:18;97433.09;;;14.41
20867;BMP280;10593;48.398;10.698;2024-01-25T11:05:46;97430.53;;;14.41
20867;BMP280;10593;48.398;10.698;2024-01-25T11:08:19;97431.34;;;14.43
20867;BMP280;10593;48.398;10.698;2024-01-25T11:10:52;97432.19;;;14.43
20867;BMP280;10593;48.398;10.698;2024-01-25T11:13:26;97437.34;;;14.45
20867;BMP280;10593;48.398;10.698;2024-01-25T11:15:52;97433.00;;;14.47
20867;BMP280;10593;48.398;10.698;2024-01-25T11:18:18;97437.31;;;14.48
20867;BMP280;10593;48.398;10.698;2024-01-25T11:20:47;97432.06;;;14.51
20867;BMP280;10593;48.398;10.698;2024-01-25T11:23:16;97429.47;;;14.54
20867;BMP280;10593;48.398;10.698;2024-01-25T11:25:45;97424.28;;;14.54
20867;BMP280;10593;48.398;10.698;2024-01-25T11:28:14;97418.19;;;14.58
20867;BMP280;10593;48.398;10.698;2024-01-25T11:30:41;97427.66;;;14.59
20867;BMP280;10593;48.398;10.698;2024-01-25T11:33:08;97420.72;;;14.61
20867;BMP280;10593;48.398;10.698;2024-01-25T11:35:35;97420.69;;;14.63
20867;BMP280;10593;48.398;10.698;2024-01-25T11:38:00;97415.47;;;14.67
20867;BMP280;10593;48.398;10.698;2024-01-25T11:40:26;97417.16;;;14.69
20867;BMP280;10593;48.398;10.698;2024-01-25T11:42:53;97419.72;;;14.72
20867;BMP280;10593;48.398;10.698;2024-01-25T11:45:19;97417.94;;;14.74
20867;BMP280;10593;48.398;10.698;2024-01-25T11:47:45;97410.16;;;14.75
20867;BMP280;10593;48.398;10.698;2024-01-25T11:50:12;97410.09;;;14.78
20867;BMP280;10593;48.398;10.698;2024-01-25T11:52:39;97407.50;;;14.80
20867;BMP280;10593;48.398;10.698;2024-01-25T11:55:09;97399.69;;;14.83
20867;BMP280;10593;48.398;10.698;2024-01-25T11:57:38;97389.31;;;14.84
20867;BMP280;10593;48.398;10.698;2024-01-25T12:00:08;97380.66;;;14.85
20867;BMP280;10593;48.398;10.698;2024-01-25T12:02:39;97382.34;;;14.88
20867;BMP280;10593;48.398;10.698;2024-01-25T12:05:06;97384.94;;;14.88
20867;BMP280;10593;48.398;10.698;2024-01-25T12:07:33;97384.03;;;14.90
20867;BMP280;10593;48.398;10.698;2024-01-25T12:10:04;97391.78;;;14.90
20867;BMP280;10593;48.398;10.698;2024-01-25T12:12:30;97386.59;;;14.92
20867;BMP280;10593;48.398;10.698;2024-01-25T12:15:05;97383.13;;;14.93
20867;BMP280;10593;48.398;10.698;2024-01-25T12:17:32;97385.69;;;14.94
20867;BMP280;10593;48.398;10.698;2024-01-25T12:19:58;97388.28;;;14.94
20867;BMP280;10593;48.398;10.698;2024-01-25T12:22:28;97386.53;;;14.96
20867;BMP280;10593;48.398;10.698;2024-01-25T12:24:57;97376.16;;;14.96
20867;BMP280;10593;48.398;10.698;2024-01-25T12:27:24;97382.16;;;14.98
20867;BMP280;10593;48.398;10.698;2024-01-25T12:29:52;97383.03;;;14.99
20867;BMP280;10593;48.398;10.698;2024-01-25T12:32:21;97383.00;;;15.00
20867;BMP280;10593;48.398;10.698;2024-01-25T12:35:00;97376.94;;;15.01
20867;BMP280;10593;48.398;10.698;2024-01-25T12:37:27;97379.53;;;15.01
20867;BMP280;10593;48.398;10.698;2024-01-25T12:39:54;97379.50;;;15.03
20867;BMP280;10593;48.398;10.698;2024-01-25T12:42:21;97385.50;;;15.05
20867;BMP280;10593;48.398;10.698;2024-01-25T12:44:47;97375.97;;;15.07
20867;BMP280;10593;48.398;10.698;2024-01-25T12:47:13;97378.56;;;15.08
20867;BMP280;10593;48.398;10.698;2024-01-25T12:49:43;97375.09;;;15.09
20867;BMP280;10593;48.398;10.698;2024-01-25T12:52:10;97370.72;;;15.11
20867;BMP280;10593;48.398;10.698;2024-01-25T12:54:37;97372.41;;;15.14
20867;BMP280;10593;48.398;10.698;2024-01-25T12:57:05;97369.78;;;15.15
20867;BMP280;10593;48.398;10.698;2024-01-25T12:59:35;97370.59;;;15.17
20867;BMP280;10593;48.398;10.698;2024-01-25T13:02:00;97351.66;;;15.17
20867;BMP280;10593;48.398;10.698;2024-01-25T13:04:27;97354.19;;;15.18
20867;BMP280;10593;48.398;10.698;2024-01-25T13:06:54;97348.16;;;15.19
20867;BMP280;10593;48.398;10.698;2024-01-25T13:09:21;97341.22;;;15.20
20867;BMP280;10593;48.398;10.698;2024-01-25T13:11:47;97348.97;;;15.21
20867;BMP280;10593;48.398;10.698;2024-01-25T13:14:13;97348.09;;;15.21
20867;BMP280;10593;48.398;10.698;2024-01-25T13:16:38;97345.53;;;15.21
20867;BMP280;10593;48.398;10.698;2024-01-25T13:19:04;97347.28;;;15.20
20867;BMP280;10593;48.398;10.698;2024-01-25T13:21:33;97345.50;;;15.22
20867;BMP280;10593;48.398;10.698;2024-01-25T13:24:00;97335.97;;;15.23
20867;BMP280;10593;48.398;10.698;2024-01-25T13:26:26;97335.97;;;15.23
20867;BMP280;10593;48.398;10.698;2024-01-25T13:28:52;97335.09;;;15.24
20867;BMP280;10593;48.398;10.698;2024-01-25T13:31:18;97334.22;;;15.25
20867;BMP280;10593;48.398;10.698;2024-01-25T13:33:44;97337.66;;;15.25
20867;BMP280;10593;48.398;10.698;2024-01-25T13:36:11;97330.78;;;15.26
20867;BMP280;10593;48.398;10.698;2024-01-25T13:38:39;97334.19;;;15.26
20867;BMP280;10593;48.398;10.698;2024-01-25T13:41:05;97322.97;;;15.27
20867;BMP280;10593;48.398;10.698;2024-01-25T13:43:31;97322.97;;;15.27
20867;BMP280;10593;48.398;10.698;2024-01-25T13:45:56;97322.97;;;15.27
20867;BMP280;10593;48.398;10.698;2024-01-25T13:48:23;97316.88;;;15.28
20867;BMP280;10593;48.398;10.698;2024-01-25T13:50:49;97316.91;;;15.30
20867;BMP280;10593;48.398;10.698;2024-01-25T13:53:15;97322.09;;;15.30